Time;durP1;ratioP1;P1;durP2;ratioP2;P2;SDS_P1;SDS_P2;PMS_P1;PMS_P2;Temp;Humidity;BMP_temperature;BMP_pressure;BME280_temperature;BME280_humidity;BME280_pressure;Samples;Min_cycle;Max_cycle;Signal;HPM_P1;HPM_P2
2024/01/30 00:00:13;;;;;;;4.50;3.50;;;8.30;85.50;;;;;;5058822;28;20488;-75
2024/01/30 00:02:39;;;;;;;5.53;3.92;;;8.40;85.60;;;;;;5059544;28;20090;-75
2024/01/30 00:05:05;;;;;;;4.68;3.58;;;8.40;85.70;;;;;;5059813;28;20040;-75
2024/01/30 00:07:31;;;;;;;4.53;3.65;;;8.40;85.80;;;;;;5061122;28;20600;-75
2024/01/30 00:09:58;;;;;;;4.63;3.65;;;8.40;85.80;;;;;;5060089;28;20029;-75
2024/01/30 00:12:24;;;;;;;4.55;3.53;;;8.30;85.60;;;;;;5057121;28;20072;-75
2024/01/30 00:14:50;;;;;;;3.97;3.25;;;8.40;85.70;;;;;;5059045;28;21100;-75
2024/01/30 00:17:16;;;;;;;4.30;3.58;;;8.30;85.50;;;;;;5057207;28;20039;-74
2024/01/30 00:19:42;;;;;;;4.47;3.67;;;8.40;85.40;;;;;;5060658;28;20033;-75
2024/01/30 00:22:08;;;;;;;4.72;3.60;;;8.40;85.40;;;;;;5054902;28;20058;-75
2024/01/30 00:24:34;;;;;;;5.03;3.65;;;8.40;85.40;;;;;;5057713;28;20032;-75
2024/01/30 00:27:00;;;;;;;4.68;3.70;;;8.40;85.30;;;;;;5057557;28;20600;-75
2024/01/30 00:29:30;;;;;;;3.85;3.40;;;8.30;85.20;;;;;;5059153;28;20021;-75
2024/01/30 00:31:56;;;;;;;4.75;3.78;;;8.40;85.30;;;;;;5059675;28;20032;-75
2024/01/30 00:38:10;;;;;;;5.33;3.33;;;8.40;85.40;;;;;;5041200;28;20056;-74
2024/01/30 00:40:36;;;;;;;4.40;3.42;;;8.40;85.30;;;;;;5057130;28;20032;-74
2024/01/30 00:43:02;;;;;;;5.93;3.58;;;8.40;85.30;;;;;;5046160;28;20071;-74
2024/01/30 00:45:28;;;;;;;4.80;3.42;;;8.40;85.20;;;;;;5044362;28;20061;-74
2024/01/30 00:47:54;;;;;;;4.55;3.60;;;8.40;85.20;;;;;;5056338;28;20053;-74
2024/01/30 00:50:20;;;;;;;4.15;3.22;;;8.40;84.90;;;;;;5039522;28;20139;-75
2024/01/30 00:52:46;;;;;;;4.30;2.95;;;8.40;85.00;;;;;;5046364;28;20048;-75
2024/01/30 00:55:12;;;;;;;3.97;3.20;;;8.40;85.00;;;;;;5035919;28;20041;-75
2024/01/30 00:57:39;;;;;;;4.53;3.25;;;8.40;85.10;;;;;;5045804;28;20041;-75
2024/01/30 01:00:07;;;;;;;3.22;2.80;;;8.40;85.20;;;;;;5055520;28;20044;-75
2024/01/30 01:02:35;;;;;;;4.97;3.63;;;8.40;85.20;;;;;;5039200;28;20131;-74
2024/01/30 01:05:02;;;;;;;4.47;3.30;;;8.40;85.20;;;;;;5038259;28;20040;-75
2024/01/30 01:07:28;;;;;;;4.95;3.22;;;8.40;85.00;;;;;;5053940;28;20028;-75
2024/01/30 01:09:54;;;;;;;3.60;2.95;;;8.40;85.10;;;;;;5053434;28;20036;-75
2024/01/30 01:12:20;;;;;;;3.08;2.75;;;8.40;85.30;;;;;;5058478;28;20037;-75
2024/01/30 01:14:45;;;;;;;3.50;3.05;;;8.40;85.40;;;;;;5057935;28;20032;-75
2024/01/30 01:17:12;;;;;;;3.47;3.03;;;8.40;85.40;;;;;;5058513;28;20029;-75
2024/01/30 01:19:38;;;;;;;4.00;3.60;;;8.40;85.50;;;;;;5057464;28;20641;-76
2024/01/30 01:22:04;;;;;;;3.22;2.70;;;8.40;85.60;;;;;;5058099;28;20040;-76
2024/01/30 01:24:34;;;;;;;5.20;3.05;;;8.40;85.60;;;;;;5057821;28;20033;-75
2024/01/30 01:27:00;;;;;;;4.15;3.17;;;8.40;85.60;;;;;;5057175;28;20052;-76
2024/01/30 01:29:28;;;;;;;3.78;2.72;;;8.40;85.60;;;;;;5056713;28;20442;-76
2024/01/30 01:31:55;;;;;;;4.65;3.33;;;8.40;85.50;;;;;;5056015;28;20074;-75
2024/01/30 01:34:23;;;;;;;4.03;3.47;;;8.40;85.70;;;;;;5058758;28;20037;-75
2024/01/30 01:36:49;;;;;;;3.83;3.00;;;8.40;85.40;;;;;;5058051;28;20086;-75
2024/01/30 01:39:16;;;;;;;4.85;3.08;;;8.40;85.40;;;;;;5072660;28;20118;-75
2024/01/30 01:41:42;;;;;;;4.35;3.35;;;8.40;85.60;;;;;;5056925;28;20029;-75
2024/01/30 01:44:08;;;;;;;3.53;3.15;;;8.40;85.80;;;;;;5057156;28;20067;-74
2024/01/30 01:46:34;;;;;;;3.55;3.00;;;8.40;85.60;;;;;;5054781;28;20045;-75
2024/01/30 01:49:03;;;;;;;4.18;3.30;;;8.40;85.50;;;;;;5057159;28;20781;-75
2024/01/30 01:51:31;;;;;;;6.10;3.42;;;8.40;85.40;;;;;;5057749;28;20074;-75
2024/01/30 01:53:59;;;;;;;3.40;2.97;;;8.40;85.60;;;;;;5059044;28;20090;-75
2024/01/30 01:56:28;;;;;;;3.45;2.90;;;8.40;85.60;;;;;;5060309;28;20372;-75
2024/01/30 01:58:55;;;;;;;3.30;3.00;;;8.40;86.20;;;;;;5044975;28;20055;-75
2024/01/30 02:01:23;;;;;;;3.88;3.33;;;8.40;85.60;;;;;;5060509;28;20048;-75
2024/01/30 02:03:49;;;;;;;3.85;3.25;;;8.50;85.60;;;;;;5064013;28;20059;-75
2024/01/30 02:06:16;;;;;;;4.15;3.22;;;8.40;85.60;;;;;;5059977;28;20589;-74
2024/01/30 02:08:42;;;;;;;3.58;2.97;;;8.50;85.80;;;;;;5060526;28;20091;-75
2024/01/30 02:11:09;;;;;;;3.67;3.10;;;8.50;85.50;;;;;;5061694;28;20099;-75
2024/01/30 02:13:36;;;;;;;4.70;3.50;;;8.40;85.40;;;;;;5058801;28;20086;-75
2024/01/30 02:16:02;;;;;;;3.45;2.92;;;8.50;85.30;;;;;;5057778;28;20041;-74
2024/01/30 02:18:28;;;;;;;3.17;2.88;;;8.50;85.40;;;;;;5060373;28;20067;-74
2024/01/30 02:21:16;;;;;;;3.40;2.90;;;8.50;85.30;;;;;;5060432;28;20040;-74
2024/01/30 02:23:44;;;;;;;3.80;3.10;;;8.50;85.50;;;;;;5059613;28;20119;-74
2024/01/30 02:26:11;;;;;;;4.57;3.28;;;8.50;85.40;;;;;;5061157;28;20052;-74
2024/01/30 02:28:38;;;;;;;4.38;2.72;;;8.50;85.30;;;;;;5058628;28;20499;-74
2024/01/30 02:31:04;;;;;;;4.18;3.40;;;8.50;85.60;;;;;;5062664;28;20096;-74
2024/01/30 02:33:30;;;;;;;3.83;3.40;;;8.50;85.40;;;;;;5059806;28;20155;-74
2024/01/30 02:35:56;;;;;;;4.20;3.20;;;8.50;85.40;;;;;;5063194;28;20422;-74
2024/01/30 02:38:23;;;;;;;3.75;3.15;;;8.50;85.40;;;;;;5060819;28;20082;-74
2024/01/30 02:40:49;;;;;;;3.42;3.13;;;8.50;85.60;;;;;;5059167;28;20101;-74
2024/01/30 02:43:16;;;;;;;3.70;3.28;;;8.50;85.60;;;;;;5060711;28;20123;-74
2024/01/30 02:45:42;;;;;;;3.55;3.20;;;8.50;85.40;;;;;;5056306;28;20032;-74
2024/01/30 02:48:08;;;;;;;4.55;3.20;;;8.50;85.30;;;;;;5058475;28;20032;-74
2024/01/30 02:50:34;;;;;;;3.72;3.30;;;8.50;85.30;;;;;;5060452;28;20147;-74
2024/01/30 02:53:00;;;;;;;3.90;3.20;;;8.50;85.30;;;;;;5057443;28;20025;-76
2024/01/30 02:55:26;;;;;;;4.38;3.33;;;8.50;85.40;;;;;;5060798;28;20602;-76
2024/01/30 02:57:52;;;;;;;5.00;3.33;;;8.50;85.20;;;;;;5060702;28;20446;-76
2024/01/30 03:00:20;;;;;;;3.53;3.22;;;8.50;85.30;;;;;;5060776;28;20095;-76
2024/01/30 03:02:46;;;;;;;3.97;3.20;;;8.50;85.20;;;;;;5060310;28;20644;-76
2024/01/30 03:05:12;;;;;;;4.32;3.22;;;8.50;85.10;;;;;;5062844;28;20076;-75
2024/01/30 03:07:38;;;;;;;3.75;3.35;;;8.50;85.20;;;;;;5040382;28;20643;-75
2024/01/30 03:10:07;;;;;;;4.32;3.47;;;8.50;85.20;;;;;;5059222;28;20044;-75
2024/01/30 03:12:33;;;;;;;3.95;3.42;;;8.50;85.20;;;;;;5061753;28;20041;-76
2024/01/30 03:14:59;;;;;;;4.15;3.30;;;8.50;85.10;;;;;;5060125;28;20037;-76
2024/01/30 03:17:25;;;;;;;3.20;2.90;;;8.50;85.20;;;;;;5061356;28;20059;-74
2024/01/30 03:19:51;;;;;;;4.55;3.88;;;8.50;85.20;;;;;;5058821;28;20150;-74
2024/01/30 03:22:17;;;;;;;3.88;3.33;;;8.60;85.20;;;;;;5059677;28;20521;-74
2024/01/30 03:24:43;;;;;;;4.72;3.28;;;8.60;85.40;;;;;;5059793;28;20048;-74
2024/01/30 03:27:09;;;;;;;3.78;3.38;;;8.60;85.30;;;;;;5058712;28;20041;-74
2024/01/30 03:29:35;;;;;;;5.05;2.97;;;8.60;85.60;;;;;;5059387;28;20028;-74
2024/01/30 03:32:03;;;;;;;4.05;3.28;;;8.50;85.60;;;;;;5058320;28;20069;-74
2024/01/30 03:34:29;;;;;;;3.53;3.15;;;8.60;85.60;;;;;;5059470;28;20064;-73
2024/01/30 03:36:55;;;;;;;3.70;3.13;;;8.60;85.50;;;;;;5056423;28;20029;-74
2024/01/30 03:39:21;;;;;;;3.58;3.03;;;8.60;85.50;;;;;;5057968;28;20095;-74
2024/01/30 03:41:47;;;;;;;3.70;3.00;;;8.60;85.60;;;;;;5059553;28;20025;-74
2024/01/30 03:44:14;;;;;;;3.03;2.72;;;8.60;85.70;;;;;;5057258;28;20431;-74
2024/01/30 03:46:39;;;;;;;3.08;2.75;;;8.60;85.70;;;;;;5057296;28;20479;-74
2024/01/30 03:49:05;;;;;;;3.60;3.13;;;8.60;85.60;;;;;;5060136;28;20122;-74
2024/01/30 03:51:31;;;;;;;4.93;3.42;;;8.60;85.70;;;;;;5061245;28;20095;-73
2024/01/30 03:53:57;;;;;;;3.35;3.05;;;8.60;85.80;;;;;;5059451;28;20039;-74
2024/01/30 03:56:25;;;;;;;3.28;2.97;;;8.60;85.90;;;;;;5059567;28;20040;-74
2024/01/30 03:58:52;;;;;;;3.75;3.25;;;8.60;85.80;;;;;;5061371;28;20036;-73
2024/01/30 04:01:18;;;;;;;6.40;3.38;;;8.60;85.90;;;;;;5058841;28;20059;-73
2024/01/30 04:03:44;;;;;;;3.40;3.00;;;8.60;86.00;;;;;;5061128;28;20556;-76
2024/01/30 04:06:10;;;;;;;3.60;3.00;;;8.70;86.10;;;;;;5060046;28;20114;-74
2024/01/30 04:08:37;;;;;;;3.58;3.25;;;8.70;86.40;;;;;;5060240;28;20036;-74
2024/01/30 04:11:05;;;;;;;3.72;3.15;;;8.70;86.30;;;;;;5057400;28;20033;-74
2024/01/30 04:13:35;;;;;;;4.03;3.20;;;8.70;86.40;;;;;;5059387;28;20064;-73
2024/01/30 04:16:02;;;;;;;3.13;2.80;;;8.70;86.40;;;;;;5058693;28;20419;-73
2024/01/30 04:18:28;;;;;;;4.43;3.33;;;8.70;86.60;;;;;;5059157;28;20040;-75
2024/01/30 04:20:55;;;;;;;4.43;3.00;;;8.70;86.60;;;;;;5058847;28;20063;-77
2024/01/30 04:23:21;;;;;;;3.88;3.30;;;8.70;86.50;;;;;;5058663;28;20025;-75
2024/01/30 04:25:47;;;;;;;3.63;3.17;;;8.70;86.60;;;;;;5058327;28;20131;-76
2024/01/30 04:28:13;;;;;;;3.38;3.05;;;8.70;86.50;;;;;;5058616;28;20031;-75
2024/01/30 04:30:39;;;;;;;3.50;3.20;;;8.70;86.80;;;;;;5045067;28;20158;-75
2024/01/30 04:33:06;;;;;;;5.32;3.42;;;8.70;86.80;;;;;;5058674;28;20032;-79
2024/01/30 04:35:32;;;;;;;4.63;3.50;;;8.70;86.60;;;;;;5057804;28;20238;-74
2024/01/30 04:37:58;;;;;;;3.92;3.35;;;8.70;86.60;;;;;;5059409;28;20037;-74
2024/01/30 04:40:23;;;;;;;4.63;3.30;;;8.70;86.50;;;;;;5057375;28;20062;-75
2024/01/30 04:42:49;;;;;;;3.70;3.17;;;8.70;86.50;;;;;;5056869;28;20029;-75
2024/01/30 04:45:15;;;;;;;3.90;3.50;;;8.70;86.50;;;;;;5056339;28;20032;-74
2024/01/30 04:47:41;;;;;;;4.32;3.40;;;8.70;86.40;;;;;;5058251;28;20496;-76
2024/01/30 04:50:08;;;;;;;4.60;3.70;;;8.70;86.40;;;;;;5057663;28;20037;-74
2024/01/30 04:52:35;;;;;;;5.18;3.67;;;8.70;86.40;;;;;;5057616;28;20166;-74
2024/01/30 04:55:01;;;;;;;4.90;3.90;;;8.70;86.10;;;;;;5058240;28;20069;-74
2024/01/30 04:57:27;;;;;;;6.55;3.85;;;8.70;86.00;;;;;;5055997;28;20040;-76
2024/01/30 04:59:53;;;;;;;4.15;3.75;;;8.70;85.70;;;;;;5061040;28;20037;-75
2024/01/30 05:02:19;;;;;;;5.18;3.80;;;8.70;85.70;;;;;;5057280;28;20377;-75
2024/01/30 05:04:45;;;;;;;5.18;3.40;;;8.70;85.40;;;;;;5058131;28;20039;-75
2024/01/30 05:07:11;;;;;;;4.45;3.70;;;8.80;85.60;;;;;;5043350;28;20534;-75
2024/01/30 05:09:37;;;;;;;4.97;3.80;;;8.80;86.20;;;;;;5055246;28;20040;-75
2024/01/30 05:12:03;;;;;;;5.93;3.90;;;8.80;86.40;;;;;;5059675;28;20033;-75
2024/01/30 05:14:29;;;;;;;7.20;3.85;;;8.80;86.70;;;;;;5057161;28;20506;-75
2024/01/30 05:16:55;;;;;;;5.25;3.45;;;8.80;86.80;;;;;;5056836;28;20032;-75
2024/01/30 05:19:23;;;;;;;5.47;4.10;;;8.80;86.90;;;;;;5057854;28;20032;-77
2024/01/30 05:21:49;;;;;;;6.85;3.97;;;8.80;87.00;;;;;;5059389;28;20029;-75
2024/01/30 05:24:15;;;;;;;6.18;4.60;;;8.80;87.00;;;;;;5057183;28;20128;-75
2024/01/30 05:26:41;;;;;;;5.85;4.68;;;8.80;87.10;;;;;;5056253;28;20083;-76
2024/01/30 05:29:07;;;;;;;5.85;4.50;;;8.80;87.20;;;;;;5053427;28;20035;-76
2024/01/30 05:31:34;;;;;;;5.30;4.35;;;8.80;87.20;;;;;;5057493;28;20067;-75
2024/01/30 05:34:00;;;;;;;6.60;4.30;;;8.80;87.10;;;;;;5047088;28;20513;-75
2024/01/30 05:36:27;;;;;;;6.68;4.60;;;8.80;87.00;;;;;;5061760;28;20564;-75
2024/01/30 05:38:53;;;;;;;6.60;4.60;;;8.80;87.00;;;;;;5061098;28;20443;-75
2024/01/30 05:41:21;;;;;;;6.47;4.65;;;8.80;86.90;;;;;;5063075;28;20114;-76
2024/01/30 05:43:47;;;;;;;8.00;4.80;;;8.80;86.90;;;;;;5041436;28;20514;-76
2024/01/30 05:46:13;;;;;;;7.05;4.55;;;8.80;86.70;;;;;;5047854;28;20394;-75
2024/01/30 05:48:39;;;;;;;6.47;4.63;;;8.80;86.70;;;;;;5062027;28;20037;-76
2024/01/30 05:51:08;;;;;;;8.07;4.82;;;8.80;86.70;;;;;;5049222;28;20036;-76
2024/01/30 05:53:34;;;;;;;7.03;4.88;;;8.80;86.70;;;;;;5062722;28;20028;-75
2024/01/30 05:56:04;;;;;;;6.97;4.20;;;8.80;86.60;;;;;;5061024;28;20521;-76
2024/01/30 05:58:31;;;;;;;5.90;4.53;;;8.90;86.60;;;;;;5062765;28;20636;-76
2024/01/30 06:00:57;;;;;;;7.05;5.18;;;8.80;86.50;;;;;;5060950;28;20037;-76
2024/01/30 06:03:23;;;;;;;7.65;4.80;;;8.80;86.50;;;;;;5059392;28;20040;-76
2024/01/30 06:05:49;;;;;;;6.78;4.47;;;8.80;86.50;;;;;;5062463;28;20838;-76
2024/01/30 06:08:15;;;;;;;7.10;5.50;;;8.80;86.30;;;;;;5060834;28;20025;-76
2024/01/30 06:10:41;;;;;;;6.22;4.70;;;8.80;86.30;;;;;;5061432;28;20051;-76
2024/01/30 06:13:07;;;;;;;7.35;5.00;;;8.90;86.40;;;;;;5057583;28;20443;-78
2024/01/30 06:15:34;;;;;;;7.47;5.00;;;8.80;86.10;;;;;;5059143;28;20451;-78
2024/01/30 06:18:00;;;;;;;6.95;5.00;;;8.90;85.80;;;;;;5056354;28;20044;-77
2024/01/30 06:20:26;;;;;;;6.82;4.88;;;8.90;85.70;;;;;;5032531;28;20086;-78
2024/01/30 06:22:52;;;;;;;6.95;4.40;;;8.90;85.40;;;;;;5059292;28;20131;-78
2024/01/30 06:25:18;;;;;;;8.27;5.28;;;8.90;85.40;;;;;;5059918;28;20422;-81
2024/01/30 06:27:44;;;;;;;8.68;5.63;;;8.90;85.20;;;;;;5060028;28;20040;-79
2024/01/30 06:30:10;;;;;;;7.38;5.15;;;8.90;85.10;;;;;;5061626;28;20036;-80
2024/01/30 06:32:36;;;;;;;6.57;5.10;;;8.90;84.50;;;;;;5061968;28;20068;-80
2024/01/30 06:35:03;;;;;;;12.32;4.80;;;8.90;84.80;;;;;;5063187;28;20127;-81
2024/01/30 06:37:29;;;;;;;16.23;5.35;;;8.90;84.80;;;;;;5060306;28;20047;-82
2024/01/30 06:39:55;;;;;;;11.63;5.28;;;9.00;86.60;;;;;;5060733;28;20576;-82
2024/01/30 06:42:21;;;;;;;8.05;4.68;;;9.00;87.10;;;;;;5062138;28;20037;-83
2024/01/30 06:44:47;;;;;;;7.30;4.93;;;9.00;87.50;;;;;;5058981;28;20037;-83
2024/01/30 06:47:13;;;;;;;11.27;4.82;;;9.00;87.40;;;;;;5061006;28;20573;-83
2024/01/30 06:49:41;;;;;;;8.65;5.13;;;9.00;87.40;;;;;;5043295;28;20040;-83
2024/01/30 06:52:08;;;;;;;8.63;4.80;;;9.00;87.50;;;;;;5059936;28;20573;-83
2024/01/30 06:54:34;;;;;;;6.13;4.85;;;9.00;87.30;;;;;;5061897;28;20061;-84
2024/01/30 06:57:00;;;;;;;9.68;4.75;;;9.00;87.40;;;;;;5059043;28;20040;-83
2024/01/30 06:59:26;;;;;;;7.90;4.93;;;9.00;87.30;;;;;;5060537;28;20548;-83
2024/01/30 07:01:52;;;;;;;5.60;4.55;;;9.00;87.40;;;;;;5063205;28;20036;-83
2024/01/30 07:04:18;;;;;;;8.13;5.00;;;9.10;87.70;;;;;;5059759;28;20041;-81
2024/01/30 07:06:44;;;;;;;7.85;5.07;;;9.10;87.40;;;;;;5060794;28;20105;-83
2024/01/30 07:09:12;;;;;;;6.85;4.75;;;9.10;87.60;;;;;;5063554;28;20032;-83
2024/01/30 07:11:38;;;;;;;5.93;5.00;;;9.10;87.30;;;;;;5059293;28;20466;-82
2024/01/30 07:14:04;;;;;;;8.63;4.57;;;9.10;87.50;;;;;;5042299;28;20044;-83
2024/01/30 07:16:30;;;;;;;7.18;4.72;;;9.10;87.60;;;;;;5076171;28;20036;-82
2024/01/30 07:18:56;;;;;;;6.40;4.75;;;9.10;87.70;;;;;;5058356;28;20085;-82
2024/01/30 07:21:27;;;;;;;8.45;4.80;;;9.10;87.70;;;;;;5060941;28;20131;-82
2024/01/30 07:23:55;;;;;;;7.78;5.22;;;9.10;87.50;;;;;;5059402;28;20036;-82
2024/01/30 07:26:21;;;;;;;8.02;4.88;;;9.20;87.60;;;;;;5058808;28;20143;-82
2024/01/30 07:28:47;;;;;;;10.32;5.07;;;9.20;87.60;;;;;;5058825;28;20040;-83
2024/01/30 07:31:13;;;;;;;6.22;4.63;;;9.20;87.50;;;;;;5059296;28;20045;-82
2024/01/30 07:33:39;;;;;;;7.82;4.50;;;9.20;87.50;;;;;;5061147;28;20043;-84
2024/01/30 07:36:05;;;;;;;6.97;4.45;;;9.20;87.60;;;;;;5061513;28;20101;-85
2024/01/30 07:38:34;;;;;;;8.63;4.65;;;9.20;87.30;;;;;;5060832;28;20176;-80
2024/01/30 07:41:00;;;;;;;5.82;4.75;;;9.20;87.50;;;;;;5058500;28;20025;-81
2024/01/30 07:43:26;;;;;;;7.47;4.85;;;9.20;87.30;;;;;;5057669;28;20120;-81
2024/01/30 07:45:52;;;;;;;6.90;4.68;;;9.30;87.60;;;;;;5059761;28;20413;-80
2024/01/30 07:48:19;;;;;;;6.85;4.70;;;9.20;87.50;;;;;;5059131;28;20033;-81
2024/01/30 07:50:45;;;;;;;9.95;5.45;;;9.30;87.50;;;;;;5056001;28;20109;-81
2024/01/30 07:53:11;;;;;;;7.63;4.63;;;9.30;87.60;;;;;;5060916;28;20033;-81
2024/01/30 07:56:12;;;;;;;6.90;4.78;;;9.30;87.60;;;;;;5056507;28;20039;-81
2024/01/30 07:58:39;;;;;;;7.60;5.18;;;9.30;87.50;;;;;;5043269;28;20808;-81
2024/01/30 08:01:05;;;;;;;6.35;4.85;;;9.30;87.40;;;;;;5055322;28;20062;-79
2024/01/30 08:03:31;;;;;;;7.90;5.13;;;9.30;87.30;;;;;;5057167;28;20146;-79
2024/01/30 08:05:57;;;;;;;6.65;4.78;;;9.40;87.20;;;;;;5059357;28;20044;-80
2024/01/30 08:08:23;;;;;;;8.90;4.78;;;9.40;87.20;;;;;;5057726;28;20450;-80
2024/01/30 08:10:49;;;;;;;6.90;5.07;;;9.40;87.10;;;;;;5055535;28;20037;-80
2024/01/30 08:13:15;;;;;;;6.95;5.20;;;9.40;86.90;;;;;;5055615;28;20037;-81
2024/01/30 08:15:41;;;;;;;6.60;5.35;;;9.40;86.80;;;;;;5043472;28;20037;-81
2024/01/30 08:18:26;;;;;;;9.15;5.30;;;9.40;87.00;;;;;;5057687;28;20060;-82
2024/01/30 08:20:52;;;;;;;9.50;4.95;;;9.40;86.60;;;;;;5055644;28;20036;-80
2024/01/30 08:23:18;;;;;;;8.63;5.55;;;9.40;86.60;;;;;;5057060;28;20166;-80
2024/01/30 08:25:45;;;;;;;7.13;5.43;;;9.40;86.70;;;;;;5056481;28;20053;-81
2024/01/30 08:28:11;;;;;;;8.75;5.22;;;9.40;86.60;;;;;;5056972;28;20036;-80
2024/01/30 08:30:39;;;;;;;8.38;5.20;;;9.40;86.70;;;;;;5043029;28;20068;-80
2024/01/30 08:33:05;;;;;;;6.80;5.25;;;9.50;86.70;;;;;;5056349;28;20055;-82
2024/01/30 08:35:33;;;;;;;6.95;5.22;;;9.40;86.50;;;;;;5042255;28;20029;-82
2024/01/30 08:37:59;;;;;;;6.57;5.00;;;9.40;86.40;;;;;;5037305;28;20079;-82
2024/01/30 08:40:25;;;;;;;7.50;5.13;;;9.50;86.20;;;;;;5038623;28;20599;-80
2024/01/30 08:42:52;;;;;;;7.32;5.10;;;9.50;86.10;;;;;;5045812;28;20036;-80
2024/01/30 08:45:18;;;;;;;6.28;5.15;;;9.50;86.10;;;;;;5043833;28;20039;-81
2024/01/30 08:47:43;;;;;;;8.02;5.60;;;9.50;85.90;;;;;;5058802;28;20033;-84
2024/01/30 08:50:09;;;;;;;6.55;4.90;;;9.50;85.90;;;;;;5056486;28;20105;-82
2024/01/30 08:52:36;;;;;;;6.65;4.90;;;9.50;85.70;;;;;;5057666;28;20052;-82
2024/01/30 08:55:02;;;;;;;7.60;5.40;;;9.50;85.70;;;;;;5058519;28;20740;-80
2024/01/30 08:57:28;;;;;;;7.18;5.63;;;9.50;85.80;;;;;;5057938;28;20044;-83
2024/01/30 08:59:54;;;;;;;7.40;5.88;;;9.50;85.80;;;;;;5057249;28;20101;-80
2024/01/30 09:02:21;;;;;;;6.75;5.13;;;9.50;85.70;;;;;;5055483;28;20045;-80
2024/01/30 09:04:47;;;;;;;8.40;5.65;;;9.60;85.70;;;;;;5058407;28;20041;-80
2024/01/30 09:07:13;;;;;;;8.20;5.32;;;9.60;85.50;;;;;;5051941;28;20029;-80
2024/01/30 09:09:40;;;;;;;6.97;4.70;;;9.60;85.60;;;;;;5058752;28;20036;-81
2024/01/30 09:12:11;;;;;;;7.10;4.95;;;9.60;85.70;;;;;;5056391;28;20051;-81
2024/01/30 09:14:38;;;;;;;7.10;4.88;;;9.60;85.80;;;;;;5056173;28;20131;-80
2024/01/30 09:17:04;;;;;;;7.35;5.22;;;9.60;85.70;;;;;;5041585;28;20036;-81
2024/01/30 09:19:31;;;;;;;6.50;5.18;;;9.60;85.70;;;;;;5059910;28;20403;-81
2024/01/30 09:21:57;;;;;;;7.38;4.70;;;9.60;85.80;;;;;;5055414;28;20036;-81
2024/01/30 09:24:23;;;;;;;7.10;5.20;;;9.70;85.70;;;;;;5056784;28;20037;-80
2024/01/30 09:26:49;;;;;;;7.72;5.25;;;9.70;85.60;;;;;;5054924;28;20052;-80
2024/01/30 09:29:19;;;;;;;7.82;5.63;;;9.70;85.70;;;;;;5056011;28;20049;-80
2024/01/30 09:31:46;;;;;;;7.10;5.00;;;9.70;85.70;;;;;;5055476;28;20043;-80
2024/01/30 09:34:13;;;;;;;7.57;5.35;;;9.70;85.80;;;;;;5056552;28;20040;-80
2024/01/30 09:36:39;;;;;;;6.70;5.32;;;9.70;85.80;;;;;;5058674;28;20036;-79
2024/01/30 09:39:06;;;;;;;7.00;5.28;;;9.70;85.70;;;;;;5056161;28;20036;-81
2024/01/30 09:41:35;;;;;;;8.48;5.00;;;9.70;85.70;;;;;;5058295;28;20139;-79
2024/01/30 09:44:02;;;;;;;7.95;5.40;;;9.70;85.80;;;;;;5055573;28;20041;-78
2024/01/30 09:46:30;;;;;;;7.50;5.35;;;9.70;85.90;;;;;;5056712;28;20036;-78
2024/01/30 09:48:58;;;;;;;7.13;4.97;;;9.70;85.90;;;;;;5057547;28;20620;-79
2024/01/30 09:51:25;;;;;;;6.72;5.28;;;9.70;85.60;;;;;;5059574;28;20041;-80
2024/01/30 09:53:51;;;;;;;9.82;5.75;;;9.70;85.60;;;;;;5057481;28;20475;-79
2024/01/30 09:56:18;;;;;;;7.25;4.85;;;9.80;85.70;;;;;;5055567;28;20043;-82
2024/01/30 09:58:44;;;;;;;6.45;5.00;;;9.80;85.70;;;;;;5028160;28;20060;-81
2024/01/30 10:01:10;;;;;;;7.72;5.50;;;9.80;85.70;;;;;;5056818;28;20136;-79
2024/01/30 10:03:36;;;;;;;7.00;5.10;;;9.80;85.50;;;;;;5057887;28;20085;-81
2024/01/30 10:06:02;;;;;;;8.20;5.45;;;9.80;85.40;;;;;;5060504;28;20029;-80
2024/01/30 10:08:29;;;;;;;7.45;5.70;;;9.70;85.20;;;;;;5059328;28;20391;-81
2024/01/30 10:10:55;;;;;;;6.30;5.30;;;9.80;85.20;;;;;;5058340;28;20113;-81
2024/01/30 10:13:21;;;;;;;9.23;5.90;;;9.80;85.20;;;;;;5056900;28;20045;-79
2024/01/30 10:15:48;;;;;;;6.95;5.30;;;9.80;85.30;;;;;;5058727;28;20403;-79
2024/01/30 10:18:14;;;;;;;8.30;5.47;;;9.80;85.30;;;;;;5059095;28;20156;-79
2024/01/30 10:20:40;;;;;;;7.57;5.13;;;9.80;85.20;;;;;;5059483;28;20039;-79
2024/01/30 10:23:06;;;;;;;7.88;5.65;;;9.80;85.00;;;;;;5060418;28;20624;-79
2024/01/30 10:25:32;;;;;;;6.90;5.35;;;9.80;85.00;;;;;;5063942;28;21173;-78
2024/01/30 10:27:59;;;;;;;7.50;5.53;;;9.80;85.20;;;;;;5052300;28;20596;-79
2024/01/30 10:30:25;;;;;;;9.52;5.40;;;9.80;85.10;;;;;;5060132;28;20052;-81
2024/01/30 10:32:51;;;;;;;7.78;5.05;;;9.80;85.00;;;;;;5063626;28;20086;-81
2024/01/30 10:35:17;;;;;;;7.50;5.25;;;9.90;85.10;;;;;;5059700;28;20036;-81
2024/01/30 10:37:44;;;;;;;6.95;5.63;;;9.90;85.10;;;;;;5061595;28;20032;-80
2024/01/30 10:40:13;;;;;;;7.15;5.47;;;9.90;85.00;;;;;;5062005;28;20025;-81
2024/01/30 10:42:43;;;;;;;8.10;5.88;;;9.90;85.00;;;;;;5060369;28;20318;-80
2024/01/30 10:45:15;;;;;;;7.80;5.53;;;9.90;85.20;;;;;;5061145;28;20136;-81
2024/01/30 10:47:48;;;;;;;7.95;5.75;;;9.90;85.10;;;;;;5061939;28;20028;-80
2024/01/30 10:50:15;;;;;;;6.75;5.45;;;9.90;84.90;;;;;;5061895;28;20563;-81
2024/01/30 10:52:43;;;;;;;10.02;6.35;;;9.90;84.90;;;;;;5058141;28;20120;-80
2024/01/30 10:55:10;;;;;;;8.07;5.65;;;9.90;84.80;;;;;;5023363;28;20037;-81
2024/01/30 10:57:37;;;;;;;7.75;5.88;;;9.90;84.80;;;;;;5051818;28;20603;-81
2024/01/30 11:00:10;;;;;;;7.47;5.28;;;9.90;84.80;;;;;;5061238;28;20399;-81
2024/01/30 11:02:41;;;;;;;7.28;5.50;;;9.90;84.90;;;;;;5058656;28;21175;-81
2024/01/30 11:05:08;;;;;;;7.45;5.30;;;9.90;84.80;;;;;;5060262;28;20045;-81
2024/01/30 11:07:34;;;;;;;9.43;6.38;;;10.00;84.80;;;;;;5059683;28;20116;-81
2024/01/30 11:10:02;;;;;;;7.95;5.95;;;10.00;84.80;;;;;;5060885;28;20135;-81
2024/01/30 11:12:29;;;;;;;8.00;5.57;;;10.00;84.80;;;;;;5059398;28;20695;-81
2024/01/30 11:15:13;;;;;;;7.20;5.47;;;10.00;84.80;;;;;;5060744;28;20491;-80
2024/01/30 11:18:00;;;;;;;7.78;5.57;;;10.00;84.60;;;;;;5061772;28;20036;-80
2024/01/30 11:20:31;;;;;;;8.13;5.60;;;10.00;84.60;;;;;;5047058;28;20029;-81
2024/01/30 11:22:58;;;;;;;7.45;5.32;;;10.00;84.50;;;;;;5057483;28;20098;-80
2024/01/30 11:25:25;;;;;;;7.90;5.63;;;10.00;84.40;;;;;;5056201;28;20040;-80
2024/01/30 11:27:55;;;;;;;8.60;5.88;;;10.00;84.40;;;;;;5059775;28;20036;-80
2024/01/30 11:30:31;;;;;;;7.63;5.78;;;10.00;84.20;;;;;;5060146;28;20466;-79
2024/01/30 11:33:11;;;;;;;8.45;5.55;;;10.00;84.20;;;;;;5058186;28;20090;-79
2024/01/30 11:35:46;;;;;;;8.38;5.57;;;10.00;84.20;;;;;;5045643;28;20037;-80
2024/01/30 11:38:14;;;;;;;9.13;5.70;;;10.10;84.40;;;;;;5060859;28;20036;-79
2024/01/30 11:40:40;;;;;;;8.27;5.70;;;10.00;84.20;;;;;;5061178;28;20032;-79
2024/01/30 11:43:09;;;;;;;6.65;5.57;;;10.10;84.20;;;;;;5060817;28;20399;-82
2024/01/30 11:45:36;;;;;;;8.35;5.63;;;10.10;84.20;;;;;;5044990;28;20381;-80
2024/01/30 11:48:06;;;;;;;7.03;5.70;;;10.10;84.40;;;;;;5060750;28;20530;-80
2024/01/30 11:50:33;;;;;;;8.18;5.60;;;10.10;84.30;;;;;;5046123;28;20068;-80
2024/01/30 11:53:01;;;;;;;7.35;5.40;;;10.10;84.30;;;;;;5060397;28;20830;-79
2024/01/30 11:55:30;;;;;;;8.52;5.82;;;10.10;84.40;;;;;;5060024;28;20052;-80
2024/01/30 11:57:59;;;;;;;9.98;5.88;;;10.10;84.30;;;;;;5041495;28;20052;-82
2024/01/30 12:00:26;;;;;;;7.70;5.88;;;10.10;84.20;;;;;;5059262;28;20040;-82
2024/01/30 12:02:57;;;;;;;9.85;6.05;;;10.10;84.20;;;;;;5047005;28;20039;-78
2024/01/30 12:05:24;;;;;;;9.15;5.68;;;10.10;84.20;;;;;;5059628;28;20033;-78
2024/01/30 12:07:50;;;;;;;9.43;6.20;;;10.10;84.00;;;;;;5059824;28;20119;-77
2024/01/30 12:10:17;;;;;;;7.13;5.30;;;10.00;84.00;;;;;;5060472;28;20043;-79
2024/01/30 12:12:46;;;;;;;6.80;5.80;;;10.10;84.30;;;;;;5060735;28;20556;-79
2024/01/30 12:15:13;;;;;;;9.95;6.60;;;10.10;84.20;;;;;;5059154;28;20036;-79
2024/01/30 12:17:40;;;;;;;10.10;5.72;;;10.00;84.10;;;;;;5058377;28;20024;-78
2024/01/30 12:20:11;;;;;;;10.68;5.82;;;10.10;84.10;;;;;;5059068;28;20036;-79
2024/01/30 12:22:39;;;;;;;7.95;5.38;;;10.10;84.10;;;;;;5060349;28;20039;-77
2024/01/30 12:25:08;;;;;;;7.75;6.13;;;10.10;84.00;;;;;;5059610;28;20048;-78
2024/01/30 12:27:34;;;;;;;9.20;6.50;;;10.10;83.80;;;;;;5055280;28;20037;-78
2024/01/30 12:30:00;;;;;;;7.82;5.78;;;10.10;83.70;;;;;;5057174;28;20052;-78
2024/01/30 12:32:27;;;;;;;9.43;6.40;;;10.10;83.60;;;;;;5056725;28;20165;-79
2024/01/30 12:34:57;;;;;;;9.38;6.25;;;10.00;83.30;;;;;;5047837;28;20036;-80
2024/01/30 12:37:24;;;;;;;10.20;5.78;;;10.10;83.30;;;;;;5059434;28;20028;-80
2024/01/30 12:39:53;;;;;;;8.15;5.80;;;10.10;83.10;;;;;;5056536;28;20075;-78
2024/01/30 12:42:21;;;;;;;8.23;6.13;;;10.10;83.30;;;;;;5054434;28;20032;-78
2024/01/30 12:44:48;;;;;;;6.50;5.47;;;10.00;83.60;;;;;;5060145;28;20036;-80
2024/01/30 12:47:16;;;;;;;9.90;6.07;;;10.00;83.10;;;;;;5057609;28;20032;-78
2024/01/30 12:49:44;;;;;;;8.45;6.15;;;10.10;83.10;;;;;;5057004;28;20534;-78
2024/01/30 12:52:12;;;;;;;9.52;6.13;;;10.00;83.20;;;;;;5059966;28;20040;-79
2024/01/30 12:54:38;;;;;;;7.47;5.75;;;10.00;83.10;;;;;;5055716;28;20101;-77
2024/01/30 12:57:05;;;;;;;10.73;6.25;;;10.00;83.00;;;;;;5056412;28;20687;-77